Time;durP1;ratioP1;P1;durP2;ratioP2;P2;SDS_P1;SDS_P2;PMS_P1;PMS_P2;Temp;Humidity;BMP_temperature;BMP_pressure;BME280_temperature;BME280_humidity;BME280_pressure;Samples;Min_cycle;Max_cycle;Signal;HPM_P1;HPM_P2
2022/02/27 00:00:44;;;;;;;10.98;4.47;;;2.00;64.50;;;;;;4935870;28;20056;-68
2022/02/27 00:03:09;;;;;;;6.38;3.00;;;1.90;64.60;;;;;;4935818;28;20507;-67
2022/02/27 00:05:35;;;;;;;12.25;3.60;;;1.90;64.40;;;;;;4936937;28;20457;-67
2022/02/27 00:08:01;;;;;;;11.75;5.07;;;1.80;64.40;;;;;;4935963;28;20036;-68
2022/02/27 00:10:27;;;;;;;11.18;4.47;;;1.80;64.60;;;;;;4934867;28;20666;-68
2022/02/27 00:12:53;;;;;;;10.38;4.30;;;1.80;64.70;;;;;;4941870;28;20043;-67
2022/02/27 00:15:19;;;;;;;11.80;4.05;;;1.80;64.70;;;;;;4937612;28;20527;-67
2022/02/27 00:17:44;;;;;;;12.80;3.40;;;1.80;64.80;;;;;;4938468;28;20035;-68
2022/02/27 00:20:10;;;;;;;13.02;3.47;;;1.80;65.10;;;;;;4934532;28;20802;-67
2022/02/27 00:22:37;;;;;;;10.13;3.00;;;1.70;65.30;;;;;;4937817;28;20099;-67
2022/02/27 00:25:04;;;;;;;12.05;4.30;;;1.70;65.40;;;;;;4935801;28;20040;-67
2022/02/27 00:27:30;;;;;;;12.30;4.32;;;1.60;65.40;;;;;;4937296;28;20032;-67
2022/02/27 00:29:55;;;;;;;10.88;3.55;;;1.60;65.70;;;;;;4935012;28;20042;-67
2022/02/27 00:32:21;;;;;;;8.43;3.42;;;1.60;65.70;;;;;;4936045;28;20126;-68
2022/02/27 00:34:46;;;;;;;7.32;3.17;;;1.60;66.00;;;;;;4939140;28;20406;-68
2022/02/27 00:37:12;;;;;;;8.95;3.78;;;1.60;66.00;;;;;;4939245;28;20042;-67
2022/02/27 00:39:38;;;;;;;10.43;3.38;;;1.60;66.10;;;;;;4939263;28;20035;-67
2022/02/27 00:42:04;;;;;;;12.70;3.72;;;1.50;66.10;;;;;;4939332;28;20403;-67
2022/02/27 00:44:30;;;;;;;7.32;3.53;;;1.50;66.10;;;;;;4939543;28;20038;-68
2022/02/27 00:46:56;;;;;;;10.23;3.60;;;1.60;66.30;;;;;;4939385;28;20035;-67
2022/02/27 00:49:21;;;;;;;7.63;3.47;;;1.60;66.10;;;;;;4938619;28;20054;-67
2022/02/27 00:51:47;;;;;;;9.18;2.80;;;1.50;66.00;;;;;;4940118;28;20040;-67
2022/02/27 00:54:13;;;;;;;13.70;3.33;;;1.60;66.10;;;;;;4939951;28;20783;-68
2022/02/27 00:56:39;;;;;;;7.05;2.85;;;1.60;66.00;;;;;;4936610;28;20039;-67
2022/02/27 00:59:05;;;;;;;6.55;2.80;;;1.60;66.00;;;;;;4938733;28;20039;-67
2022/02/27 01:01:30;;;;;;;8.32;3.50;;;1.60;66.10;;;;;;4939251;28;20035;-67
2022/02/27 01:03:56;;;;;;;8.15;2.90;;;1.60;66.10;;;;;;4938496;28;20098;-67
2022/02/27 01:06:23;;;;;;;8.95;2.92;;;1.60;66.10;;;;;;4939573;28;20047;-67
2022/02/27 01:08:48;;;;;;;9.02;2.60;;;1.60;66.10;;;;;;4937836;28;20058;-67
2022/02/27 01:11:14;;;;;;;11.50;3.00;;;1.60;66.00;;;;;;4940103;28;20051;-67
2022/02/27 01:13:39;;;;;;;8.45;3.25;;;1.60;66.10;;;;;;4938355;28;20027;-67
2022/02/27 01:16:06;;;;;;;7.22;2.58;;;1.60;66.10;;;;;;4938613;28;20542;-67
2022/02/27 01:18:33;;;;;;;9.98;2.70;;;1.60;66.10;;;;;;4940752;28;20507;-67
2022/02/27 01:20:58;;;;;;;7.80;2.67;;;1.60;66.10;;;;;;4900913;28;1088009;-67
2022/02/27 01:23:24;;;;;;;8.63;2.97;;;1.60;67.10;;;;;;4938945;28;20043;-68
2022/02/27 01:25:50;;;;;;;8.98;3.28;;;1.60;66.30;;;;;;4938916;28;20043;-67
2022/02/27 01:28:16;;;;;;;9.88;2.97;;;1.50;66.40;;;;;;4940778;28;20071;-67
2022/02/27 01:30:41;;;;;;;9.95;3.00;;;1.50;66.50;;;;;;4940390;28;20411;-68
2022/02/27 01:33:07;;;;;;;10.40;3.40;;;1.40;66.60;;;;;;4940444;28;20039;-67
2022/02/27 01:35:33;;;;;;;7.25;2.97;;;1.50;66.80;;;;;;4939388;28;20055;-68
2022/02/27 01:37:59;;;;;;;7.22;3.10;;;1.40;66.80;;;;;;4938484;28;20035;-67
2022/02/27 01:40:25;;;;;;;8.30;2.55;;;1.40;66.90;;;;;;4937800;28;20037;-67
2022/02/27 01:42:51;;;;;;;8.00;2.67;;;1.40;66.90;;;;;;4938930;28;20035;-67
2022/02/27 01:45:17;;;;;;;8.93;3.55;;;1.30;66.80;;;;;;4939180;28;20090;-68
2022/02/27 01:47:42;;;;;;;10.25;2.80;;;1.30;67.00;;;;;;4940855;28;20031;-67
2022/02/27 01:50:09;;;;;;;9.00;3.00;;;1.30;67.10;;;;;;4939026;28;20040;-67
2022/02/27 01:52:35;;;;;;;7.00;2.78;;;1.30;67.30;;;;;;4940065;28;20454;-67
2022/02/27 01:55:02;;;;;;;6.57;2.72;;;1.30;67.30;;;;;;4939398;28;20040;-67
2022/02/27 01:57:27;;;;;;;7.32;2.72;;;1.30;67.20;;;;;;4940001;28;20035;-67
2022/02/27 01:59:53;;;;;;;12.27;2.85;;;1.30;67.20;;;;;;4940862;28;20033;-67
2022/02/27 02:02:19;;;;;;;11.60;3.40;;;1.30;67.20;;;;;;4942195;28;20036;-67
2022/02/27 02:04:45;;;;;;;8.98;3.25;;;1.40;67.20;;;;;;4939318;28;20558;-67
2022/02/27 02:07:12;;;;;;;9.55;3.40;;;1.40;67.20;;;;;;4939994;28;20447;-68
2022/02/27 02:09:37;;;;;;;8.55;2.90;;;1.30;67.30;;;;;;4939746;28;20043;-67
2022/02/27 02:12:05;;;;;;;7.75;3.30;;;1.30;67.30;;;;;;4938071;28;20142;-68
2022/02/27 02:14:30;;;;;;;10.13;2.67;;;1.30;67.20;;;;;;4939354;28;20031;-68
2022/02/27 02:16:56;;;;;;;9.05;2.75;;;1.30;67.30;;;;;;4940584;28;20059;-68
2022/02/27 02:19:24;;;;;;;9.02;3.10;;;1.30;67.30;;;;;;4938502;28;20529;-67
2022/02/27 02:21:52;;;;;;;8.68;2.72;;;1.30;67.30;;;;;;4940249;28;20032;-67
2022/02/27 02:24:20;;;;;;;10.00;3.05;;;1.30;67.20;;;;;;4937810;28;20469;-67
2022/02/27 02:26:47;;;;;;;9.27;3.00;;;1.20;67.30;;;;;;4937702;28;20532;-67
2022/02/27 02:29:15;;;;;;;11.52;3.40;;;1.20;67.50;;;;;;4936178;28;20404;-67
2022/02/27 02:31:42;;;;;;;12.88;3.08;;;1.20;67.70;;;;;;4939285;28;20043;-67
2022/02/27 02:34:16;;;;;;;8.60;2.78;;;1.20;67.70;;;;;;4939345;28;20260;-67
2022/02/27 02:36:43;;;;;;;10.43;2.88;;;1.20;68.00;;;;;;4937568;28;20451;-67
2022/02/27 02:39:10;;;;;;;10.88;3.33;;;1.20;68.10;;;;;;4935736;28;20043;-67
2022/02/27 02:41:36;;;;;;;7.00;3.03;;;1.30;68.20;;;;;;4939284;28;20032;-67
2022/02/27 02:44:03;;;;;;;8.88;3.00;;;1.20;68.20;;;;;;4937143;28;20039;-67
2022/02/27 02:46:29;;;;;;;12.43;3.10;;;1.20;68.10;;;;;;4938910;28;20534;-67
2022/02/27 02:48:55;;;;;;;9.38;2.97;;;1.20;68.00;;;;;;4939039;28;20571;-67
2022/02/27 02:51:21;;;;;;;9.52;3.00;;;1.20;68.20;;;;;;4937638;28;20194;-67
2022/02/27 02:53:46;;;;;;;8.95;2.90;;;1.20;68.30;;;;;;4939583;28;20501;-68
2022/02/27 02:56:12;;;;;;;8.10;3.05;;;1.20;68.30;;;;;;4938843;28;20028;-67
2022/02/27 02:58:40;;;;;;;11.57;3.15;;;1.20;68.50;;;;;;4937683;28;20043;-67
2022/02/27 03:01:11;;;;;;;10.52;3.28;;;1.20;68.40;;;;;;4938690;28;20563;-67
2022/02/27 03:03:38;;;;;;;9.43;2.97;;;1.20;68.40;;;;;;4939085;28;20032;-66
2022/02/27 03:06:04;;;;;;;8.07;3.30;;;1.20;68.40;;;;;;4938258;28;20035;-67
2022/02/27 03:08:31;;;;;;;14.45;3.45;;;1.20;68.40;;;;;;4937972;28;20422;-67
2022/02/27 03:10:58;;;;;;;9.90;3.30;;;1.20;68.60;;;;;;4936151;28;20039;-67
2022/02/27 03:13:24;;;;;;;8.02;3.20;;;1.20;68.90;;;;;;4937545;28;20615;-68
2022/02/27 03:15:50;;;;;;;9.57;3.60;;;1.20;68.80;;;;;;4937746;28;20110;-67
2022/02/27 03:18:15;;;;;;;10.38;3.25;;;1.20;68.80;;;;;;4935818;28;20082;-68
2022/02/27 03:20:41;;;;;;;7.90;3.30;;;1.20;68.70;;;;;;4935406;28;20051;-67
2022/02/27 03:23:07;;;;;;;9.18;3.35;;;1.20;68.70;;;;;;4938282;28;20051;-67
2022/02/27 03:25:33;;;;;;;12.05;3.22;;;1.20;68.80;;;;;;4938342;28;20031;-67
2022/02/27 03:27:59;;;;;;;11.30;3.60;;;1.20;68.80;;;;;;4939639;28;20024;-68
2022/02/27 03:30:24;;;;;;;9.32;3.25;;;1.20;68.70;;;;;;4936805;28;20071;-68
2022/02/27 03:32:50;;;;;;;11.02;3.30;;;1.20;68.70;;;;;;4938573;28;20043;-67
2022/02/27 03:35:17;;;;;;;8.77;3.20;;;1.20;68.80;;;;;;4936508;28;20569;-67
2022/02/27 03:37:43;;;;;;;11.20;3.78;;;1.10;69.10;;;;;;4937652;28;20220;-68
2022/02/27 03:40:13;;;;;;;9.23;2.90;;;1.20;69.10;;;;;;4937456;28;20036;-68
2022/02/27 03:42:39;;;;;;;9.45;3.38;;;1.20;69.10;;;;;;4938336;28;20343;-67
2022/02/27 03:45:05;;;;;;;6.85;3.25;;;1.10;69.00;;;;;;4937281;28;20028;-67
2022/02/27 03:47:31;;;;;;;11.73;2.90;;;1.20;69.30;;;;;;4938515;28;20039;-67
2022/02/27 03:49:57;;;;;;;7.80;3.13;;;1.20;69.30;;;;;;4936748;28;20028;-68
2022/02/27 03:52:26;;;;;;;12.40;3.63;;;1.10;69.10;;;;;;4935480;28;20035;-67
2022/02/27 03:54:51;;;;;;;10.90;3.28;;;1.10;69.20;;;;;;4935484;28;20035;-67
2022/02/27 03:57:17;;;;;;;9.60;3.60;;;1.20;69.30;;;;;;4935732;28;20517;-67
2022/02/27 03:59:42;;;;;;;8.45;3.35;;;1.10;69.40;;;;;;4937470;28;20032;-67
2022/02/27 04:02:08;;;;;;;10.48;3.17;;;1.10;69.60;;;;;;4938220;28;20523;-67
2022/02/27 04:04:34;;;;;;;9.05;3.38;;;1.10;69.60;;;;;;4935429;28;20039;-67
2022/02/27 04:06:59;;;;;;;12.63;3.65;;;1.10;69.80;;;;;;4938209;28;20043;-62
2022/02/27 04:09:25;;;;;;;8.18;3.47;;;1.10;70.00;;;;;;4939296;28;20480;-67
2022/02/27 04:11:50;;;;;;;10.13;3.47;;;1.20;70.00;;;;;;4940072;28;20577;-67
2022/02/27 04:14:16;;;;;;;14.27;4.68;;;1.20;70.00;;;;;;4940203;28;20060;-67
2022/02/27 04:16:42;;;;;;;10.45;3.53;;;1.20;70.00;;;;;;4941927;28;20058;-68
2022/02/27 04:19:08;;;;;;;7.45;3.10;;;1.20;70.00;;;;;;4941441;28;20032;-67
2022/02/27 04:21:34;;;;;;;7.30;3.50;;;1.20;70.00;;;;;;4941267;28;20280;-67
2022/02/27 04:24:00;;;;;;;5.22;3.47;;;1.20;70.00;;;;;;4940723;28;20046;-67
2022/02/27 04:26:26;;;;;;;10.02;3.80;;;1.20;70.00;;;;;;4939448;28;20098;-67
2022/02/27 04:28:52;;;;;;;9.05;3.10;;;1.20;70.00;;;;;;4941412;28;20040;-67
2022/02/27 04:31:17;;;;;;;9.38;3.50;;;1.20;70.10;;;;;;4941091;28;20435;-67
2022/02/27 04:33:43;;;;;;;13.13;4.40;;;1.20;70.10;;;;;;4940959;28;20043;-67
2022/02/27 04:36:09;;;;;;;9.43;3.25;;;1.20;70.10;;;;;;4940445;28;20038;-66
2022/02/27 04:38:34;;;;;;;9.77;3.70;;;1.20;70.10;;;;;;4939873;28;20086;-67
2022/02/27 04:41:00;;;;;;;14.23;3.88;;;1.20;70.20;;;;;;4941897;28;20035;-67
2022/02/27 04:43:26;;;;;;;8.35;3.65;;;1.20;70.30;;;;;;4939325;28;20051;-67
2022/02/27 04:45:51;;;;;;;10.40;3.80;;;1.20;70.30;;;;;;4941269;28;20243;-67
2022/02/27 04:48:17;;;;;;;13.27;3.85;;;1.20;70.30;;;;;;4940407;28;20038;-67
2022/02/27 04:50:43;;;;;;;8.40;3.65;;;1.20;70.20;;;;;;4941242;28;20490;-67
2022/02/27 04:53:08;;;;;;;10.73;3.55;;;1.20;70.30;;;;;;4939353;28;20426;-67
2022/02/27 04:55:34;;;;;;;10.85;3.40;;;1.20;70.30;;;;;;4940637;28;20054;-68
2022/02/27 04:58:00;;;;;;;10.82;3.38;;;1.20;70.10;;;;;;4943578;28;20336;-67
2022/02/27 05:00:25;;;;;;;9.38;3.60;;;1.20;70.00;;;;;;4939028;28;20115;-67
2022/02/27 05:02:51;;;;;;;11.25;3.72;;;1.20;69.90;;;;;;4941056;28;20434;-67
2022/02/27 05:05:16;;;;;;;8.63;3.88;;;1.20;69.90;;;;;;4938754;28;20028;-68
2022/02/27 05:07:42;;;;;;;11.07;3.92;;;1.10;70.00;;;;;;4941353;28;20059;-67
2022/02/27 05:10:09;;;;;;;12.88;4.22;;;1.20;70.10;;;;;;4939538;28;20035;-67
2022/02/27 05:12:38;;;;;;;17.55;4.40;;;1.10;70.20;;;;;;4937895;28;20040;-67
2022/02/27 05:15:06;;;;;;;10.63;4.13;;;1.10;70.30;;;;;;4941502;28;20028;-67
2022/02/27 05:17:31;;;;;;;9.77;4.05;;;1.10;70.30;;;;;;4940689;28;20740;-67
2022/02/27 05:19:57;;;;;;;10.68;3.90;;;1.10;70.20;;;;;;4939344;28;20035;-67
2022/02/27 05:22:23;;;;;;;10.48;3.78;;;1.10;70.20;;;;;;4940081;28;20538;-68
2022/02/27 05:24:48;;;;;;;9.43;3.92;;;1.10;70.30;;;;;;4939615;28;20838;-68
2022/02/27 05:27:14;;;;;;;10.55;3.97;;;1.10;70.30;;;;;;4939486;28;20031;-67
2022/02/27 05:29:39;;;;;;;10.23;4.30;;;1.10;70.30;;;;;;4945996;28;20050;-67
2022/02/27 05:32:05;;;;;;;11.90;4.40;;;1.10;70.20;;;;;;4940230;28;20038;-67
2022/02/27 05:34:31;;;;;;;11.30;4.00;;;1.00;70.10;;;;;;4938954;28;20046;-68
2022/02/27 05:36:57;;;;;;;10.45;3.92;;;1.00;70.10;;;;;;4940021;28;20024;-68
2022/02/27 05:39:23;;;;;;;12.63;4.38;;;1.00;70.20;;;;;;4938870;28;20067;-67
2022/02/27 05:41:49;;;;;;;14.35;4.30;;;1.00;70.30;;;;;;4941466;28;20581;-67
2022/02/27 05:44:14;;;;;;;17.13;4.22;;;1.00;70.30;;;;;;4939586;28;20597;-66
2022/02/27 05:46:40;;;;;;;9.25;4.60;;;0.90;70.30;;;;;;4937524;28;20050;-68
2022/02/27 05:49:05;;;;;;;7.90;3.75;;;0.90;70.50;;;;;;4939621;28;20031;-67
2022/02/27 05:51:31;;;;;;;9.85;4.15;;;0.90;71.30;;;;;;4939844;28;20016;-67
2022/02/27 05:53:57;;;;;;;10.45;3.95;;;0.90;70.50;;;;;;4941425;28;20368;-68
2022/02/27 05:56:22;;;;;;;11.52;3.92;;;0.90;70.50;;;;;;4938235;28;20079;-66
2022/02/27 05:58:48;;;;;;;7.95;4.20;;;0.90;70.50;;;;;;4942838;28;20094;-67
2022/02/27 06:01:14;;;;;;;11.68;3.95;;;0.90;70.50;;;;;;4939298;28;20035;-66
2022/02/27 06:03:39;;;;;;;9.50;4.00;;;0.90;70.50;;;;;;4939548;28;20439;-66
2022/02/27 06:06:05;;;;;;;12.77;4.32;;;0.80;70.50;;;;;;4940402;28;20067;-67
2022/02/27 06:08:31;;;;;;;9.43;4.03;;;0.80;70.60;;;;;;4938247;28;20518;-67
2022/02/27 06:10:57;;;;;;;12.43;4.45;;;0.80;70.70;;;;;;4937414;28;20499;-67
2022/02/27 06:13:22;;;;;;;11.70;4.97;;;0.80;70.80;;;;;;4939298;28;20479;-68
2022/02/27 06:15:48;;;;;;;8.75;4.07;;;0.80;70.90;;;;;;4939308;28;20044;-67
2022/02/27 06:18:13;;;;;;;13.70;4.90;;;0.80;71.00;;;;;;4939501;28;20090;-66
2022/02/27 06:20:39;;;;;;;12.85;5.10;;;0.80;71.00;;;;;;4938676;28;20039;-67
2022/02/27 06:23:06;;;;;;;13.70;5.18;;;0.80;71.00;;;;;;4940282;28;20031;-67
2022/02/27 06:25:31;;;;;;;17.20;5.95;;;0.70;71.00;;;;;;4938028;28;20040;-67
2022/02/27 06:27:57;;;;;;;21.67;8.80;;;0.80;71.20;;;;;;4939410;28;20027;-67
2022/02/27 06:30:24;;;;;;;24.33;10.77;;;0.80;71.20;;;;;;4936916;28;20407;-67
2022/02/27 06:32:51;;;;;;;30.80;10.50;;;0.80;71.30;;;;;;4937174;28;20549;-67
2022/02/27 06:35:19;;;;;;;22.02;8.10;;;0.80;71.30;;;;;;4939196;28;20066;-67
2022/02/27 06:37:45;;;;;;;14.13;6.75;;;0.80;71.30;;;;;;4938959;28;20059;-67
2022/02/27 06:40:11;;;;;;;16.00;5.97;;;0.80;72.20;;;;;;4939897;28;20039;-68
2022/02/27 06:42:39;;;;;;;16.00;5.65;;;0.80;71.30;;;;;;4937128;28;20094;-67
2022/02/27 06:45:05;;;;;;;14.32;5.78;;;0.80;70.60;;;;;;4938469;28;20032;-67
2022/02/27 06:47:31;;;;;;;15.35;5.70;;;0.80;71.40;;;;;;4937516;28;20082;-67
2022/02/27 06:49:57;;;;;;;11.88;5.38;;;0.80;71.60;;;;;;4940046;28;20027;-67
2022/02/27 06:52:23;;;;;;;16.42;6.35;;;0.80;71.70;;;;;;4935111;28;20102;-67
2022/02/27 06:54:49;;;;;;;13.55;5.30;;;0.80;72.00;;;;;;4936794;28;20055;-67
2022/02/27 06:57:15;;;;;;;12.30;5.90;;;0.80;72.10;;;;;;4934775;28;20034;-68
2022/02/27 06:59:41;;;;;;;14.75;6.07;;;0.80;72.20;;;;;;4933378;28;20040;-68
2022/02/27 07:02:07;;;;;;;13.23;6.30;;;0.80;72.30;;;;;;4936612;28;20091;-68
2022/02/27 07:04:34;;;;;;;13.18;6.22;;;0.80;72.40;;;;;;4927814;28;20188;-67
2022/02/27 07:06:59;;;;;;;13.43;6.28;;;0.80;72.40;;;;;;4929373;28;20035;-68
2022/02/27 07:09:25;;;;;;;16.15;7.30;;;0.90;72.60;;;;;;4930540;28;20132;-67
2022/02/27 07:11:52;;;;;;;13.68;5.97;;;0.80;72.50;;;;;;4937242;28;20066;-67
2022/02/27 07:14:18;;;;;;;10.40;5.65;;;0.90;72.70;;;;;;4939040;28;20094;-68
2022/02/27 07:16:44;;;;;;;15.45;6.38;;;0.90;72.70;;;;;;4939045;28;20048;-67
2022/02/27 07:19:10;;;;;;;17.27;6.35;;;0.90;72.70;;;;;;4931024;28;20043;-64
2022/02/27 07:21:35;;;;;;;16.48;6.50;;;1.00;73.10;;;;;;4933146;28;20380;-67
2022/02/27 07:24:01;;;;;;;11.52;5.88;;;1.00;73.10;;;;;;4934167;28;20094;-67
2022/02/27 07:26:27;;;;;;;15.05;6.35;;;1.10;73.40;;;;;;4931328;28;20512;-66
2022/02/27 07:28:52;;;;;;;13.30;6.40;;;1.10;73.50;;;;;;4934223;28;20047;-67
2022/02/27 07:31:19;;;;;;;10.80;6.07;;;1.10;73.70;;;;;;4934168;28;20027;-68
2022/02/27 07:33:45;;;;;;;14.70;6.53;;;1.20;73.80;;;;;;4932969;28;20031;-67
2022/02/27 07:36:11;;;;;;;14.43;6.50;;;1.20;73.90;;;;;;4935347;28;20051;-67
2022/02/27 07:38:37;;;;;;;13.38;6.35;;;1.20;74.10;;;;;;4938022;28;20544;-68
2022/02/27 07:41:03;;;;;;;18.73;6.75;;;1.30;74.10;;;;;;4939416;28;20039;-67
2022/02/27 07:43:28;;;;;;;12.02;6.05;;;1.30;74.10;;;;;;4939570;28;20027;-67
2022/02/27 07:45:54;;;;;;;15.52;6.22;;;1.40;74.30;;;;;;4933807;28;20043;-67
2022/02/27 07:48:20;;;;;;;11.55;6.10;;;1.40;74.30;;;;;;4938322;28;20554;-67
2022/02/27 07:50:45;;;;;;;14.48;6.45;;;1.40;74.30;;;;;;4935407;28;20114;-67
2022/02/27 07:53:11;;;;;;;16.25;8.07;;;1.50;74.70;;;;;;4938743;28;20074;-68
2022/02/27 07:55:36;;;;;;;10.73;6.35;;;1.50;74.60;;;;;;4938621;28;20130;-67
2022/02/27 07:58:03;;;;;;;11.82;6.35;;;1.60;74.60;;;;;;4933851;28;20621;-67
2022/02/27 08:00:28;;;;;;;12.10;6.15;;;1.60;74.80;;;;;;4938140;28;20035;-66
2022/02/27 08:02:54;;;;;;;13.88;6.25;;;1.60;74.90;;;;;;4933920;28;20039;-68
2022/02/27 08:05:20;;;;;;;13.05;6.07;;;1.70;74.80;;;;;;4935749;28;20135;-68
2022/02/27 08:07:46;;;;;;;12.25;6.10;;;1.70;74.80;;;;;;4939242;28;20526;-67
2022/02/27 08:10:12;;;;;;;13.15;6.43;;;1.80;75.10;;;;;;4946139;23;20055;-65
2022/02/27 08:12:45;;;;;;;15.77;6.68;;;1.90;75.00;;;;;;4953362;28;20311;-66
2022/02/27 08:15:12;;;;;;;14.80;7.05;;;1.90;75.50;;;;;;4954444;28;20657;-67
2022/02/27 08:17:39;;;;;;;15.68;6.30;;;2.00;75.00;;;;;;4962893;28;20028;-67
2022/02/27 08:20:05;;;;;;;13.52;6.63;;;2.10;75.20;;;;;;4959890;28;20441;-63
2022/02/27 08:22:31;;;;;;;12.45;6.57;;;2.20;75.60;;;;;;4970506;23;20043;-60
2022/02/27 08:24:57;;;;;;;12.05;6.45;;;2.20;75.10;;;;;;4927907;28;20036;-63
2022/02/27 08:27:22;;;;;;;15.55;6.35;;;2.30;75.00;;;;;;4934821;28;20036;-60
2022/02/27 08:29:49;;;;;;;12.10;6.53;;;2.40;75.00;;;;;;4971484;23;20048;-62
2022/02/27 08:32:18;;;;;;;15.07;6.60;;;2.50;74.80;;;;;;4913319;28;20048;-63
2022/02/27 08:34:44;;;;;;;13.68;6.50;;;2.60;74.80;;;;;;4926155;28;20035;-63
2022/02/27 08:37:11;;;;;;;13.80;6.72;;;2.70;74.70;;;;;;4922888;28;20059;-64
2022/02/27 08:39:37;;;;;;;13.65;6.75;;;2.80;74.80;;;;;;4922986;28;20094;-63
2022/02/27 08:42:04;;;;;;;13.57;6.63;;;2.90;74.60;;;;;;4923290;28;20508;-64
2022/02/27 08:44:34;;;;;;;12.25;6.90;;;3.00;74.40;;;;;;4922346;28;20091;-63
2022/02/27 08:47:04;;;;;;;9.50;6.25;;;3.10;74.30;;;;;;4921150;28;20039;-65
2022/02/27 08:49:31;;;;;;;10.68;6.70;;;3.10;74.20;;;;;;4922766;28;20035;-64
2022/02/27 08:51:57;;;;;;;12.82;6.43;;;3.30;73.60;;;;;;4918592;28;20115;-65
2022/02/27 08:54:23;;;;;;;12.98;7.15;;;3.30;73.60;;;;;;4924640;28;20658;-65
2022/02/27 08:56:49;;;;;;;11.48;6.30;;;3.40;73.40;;;;;;4927484;28;20023;-65
2022/02/27 08:59:15;;;;;;;12.73;7.18;;;3.40;73.20;;;;;;4928094;28;20036;-64
2022/02/27 09:01:41;;;;;;;11.23;6.40;;;3.50;73.20;;;;;;4925590;28;20051;-65
2022/02/27 09:04:07;;;;;;;14.13;6.68;;;3.60;73.10;;;;;;4927681;28;20456;-65
2022/02/27 09:06:32;;;;;;;12.77;6.32;;;3.60;72.80;;;;;;4920275;28;20035;-64
2022/02/27 09:08:58;;;;;;;10.30;6.82;;;3.70;72.70;;;;;;4925573;28;20035;-65
2022/02/27 09:11:24;;;;;;;15.93;7.40;;;3.70;72.50;;;;;;4919115;29;20510;-66
2022/02/27 09:13:49;;;;;;;12.57;7.00;;;3.80;72.50;;;;;;4926236;28;20048;-66
2022/02/27 09:16:15;;;;;;;12.35;6.72;;;3.80;72.50;;;;;;4927474;29;20046;-65
2022/02/27 09:18:41;;;;;;;11.07;6.70;;;3.90;72.30;;;;;;4928775;28;20031;-65
2022/02/27 09:21:08;;;;;;;11.77;6.80;;;3.90;72.20;;;;;;4924754;28;20032;-65
2022/02/27 09:23:35;;;;;;;11.70;7.00;;;4.00;72.20;;;;;;4923237;28;20032;-65
2022/02/27 09:26:01;;;;;;;12.48;7.07;;;4.10;72.30;;;;;;4926547;28;20095;-66
2022/02/27 09:28:28;;;;;;;14.93;7.13;;;4.10;72.00;;;;;;4929575;28;20737;-65
2022/02/27 09:30:54;;;;;;;11.15;6.90;;;4.20;71.90;;;;;;4927295;28;20042;-65
2022/02/27 09:33:20;;;;;;;13.50;7.30;;;4.20;71.50;;;;;;4929524;28;20087;-65
2022/02/27 09:35:46;;;;;;;12.65;6.25;;;4.30;71.50;;;;;;4942389;28;20032;-65
2022/02/27 09:38:12;;;;;;;13.43;6.88;;;4.40;71.70;;;;;;4928796;28;20445;-65
2022/02/27 09:40:38;;;;;;;10.18;6.35;;;4.40;71.50;;;;;;4927191;28;20028;-64
2022/02/27 09:43:04;;;;;;;10.93;6.40;;;4.50;71.20;;;;;;4925924;28;20091;-66
2022/02/27 09:45:29;;;;;;;8.65;6.45;;;4.60;71.00;;;;;;4917992;28;20051;-65
2022/02/27 09:47:57;;;;;;;11.07;5.95;;;4.60;70.80;;;;;;4926057;29;20046;-65
2022/02/27 09:50:24;;;;;;;8.73;5.40;;;4.70;70.80;;;;;;4921374;28;20579;-66
2022/02/27 09:52:50;;;;;;;9.88;5.60;;;4.70;70.50;;;;;;4927483;28;20506;-63
2022/02/27 09:55:17;;;;;;;6.85;4.57;;;4.80;70.00;;;;;;4925386;28;20050;-65
2022/02/27 09:57:49;;;;;;;7.95;4.40;;;4.90;69.40;;;;;;4921035;28;20043;-65
2022/02/27 10:00:17;;;;;;;7.22;4.35;;;4.90;68.70;;;;;;4930778;28;20031;-66
2022/02/27 10:03:10;;;;;;;5.43;3.85;;;5.00;68.20;;;;;;4931102;28;20523;-65
2022/02/27 10:05:41;;;;;;;6.15;4.32;;;5.10;67.20;;;;;;4928738;28;20040;-65
2022/02/27 10:08:07;;;;;;;7.75;4.40;;;5.10;67.70;;;;;;4930290;28;20135;-66
2022/02/27 10:10:34;;;;;;;5.45;4.00;;;5.20;67.30;;;;;;4927688;28;20036;-66
2022/02/27 10:13:00;;;;;;;7.57;4.10;;;5.30;66.90;;;;;;4930514;28;20095;-65
2022/02/27 10:15:26;;;;;;;6.10;3.72;;;5.30;66.60;;;;;;4930753;28;20039;-65
2022/02/27 10:17:53;;;;;;;5.65;3.60;;;5.40;66.10;;;;;;4930412;28;20420;-66
2022/02/27 10:20:22;;;;;;;5.78;3.25;;;5.50;65.80;;;;;;4930391;28;20487;-65
2022/02/27 10:22:50;;;;;;;5.05;3.28;;;5.60;65.40;;;;;;4929668;28;20071;-65
2022/02/27 10:25:27;;;;;;;4.40;3.28;;;5.60;64.90;;;;;;4930687;28;20043;-66
2022/02/27 10:27:55;;;;;;;6.38;3.53;;;5.70;64.00;;;;;;4923738;29;20051;-65
2022/02/27 10:30:26;;;;;;;8.38;3.95;;;5.80;64.20;;;;;;4929249;28;20087;-65
2022/02/27 10:32:59;;;;;;;5.35;3.47;;;5.90;63.60;;;;;;4929841;28;20039;-66
2022/02/27 10:35:48;;;;;;;5.47;3.50;;;5.90;63.50;;;;;;4930957;28;20043;-65
2022/02/27 10:38:51;;;;;;;5.20;3.20;;;6.00;63.00;;;;;;4930753;28;20027;-66
2022/02/27 10:41:21;;;;;;;5.75;3.42;;;6.10;62.50;;;;;;4915701;28;20062;-66
2022/02/27 10:43:48;;;;;;;5.50;3.47;;;6.10;63.20;;;;;;4929903;28;20118;-64
2022/02/27 10:46:17;;;;;;;4.95;3.33;;;6.20;63.00;;;;;;4930639;28;20618;-66
2022/02/27 10:48:44;;;;;;;4.38;3.25;;;6.30;62.50;;;;;;4929903;28;20047;-66
2022/02/27 10:51:12;;;;;;;10.65;3.40;;;6.40;62.30;;;;;;4927951;28;21029;-65
2022/02/27 10:53:45;;;;;;;4.75;3.17;;;6.40;62.00;;;;;;4924958;28;20399;-66
2022/02/27 10:56:12;;;;;;;4.65;3.20;;;6.50;61.30;;;;;;4927586;28;20032;-66
2022/02/27 10:58:48;;;;;;;5.97;3.55;;;6.50;61.10;;;;;;4927814;28;20032;-66
2022/02/27 11:01:18;;;;;;;5.72;3.45;;;6.60;60.20;;;;;;4926664;28;20031;-66
2022/02/27 11:03:46;;;;;;;3.97;2.92;;;6.60;60.20;;;;;;4926074;28;20083;-66
2022/02/27 11:06:13;;;;;;;5.97;3.20;;;6.60;60.20;;;;;;4926192;28;20039;-65
2022/02/27 11:08:40;;;;;;;4.90;3.50;;;6.70;59.90;;;;;;4928497;28;20070;-66
2022/02/27 11:11:07;;;;;;;4.45;3.35;;;6.70;59.80;;;;;;4923045;28;20642;-63
2022/02/27 11:13:33;;;;;;;4.25;3.40;;;6.70;59.50;;;;;;4929580;28;20032;-65
2022/02/27 11:16:00;;;;;;;5.53;3.33;;;6.80;59.50;;;;;;4925591;28;20105;-65
2022/02/27 11:18:26;;;;;;;7.03;3.05;;;6.80;59.20;;;;;;4927228;28;20490;-65
2022/02/27 11:20:55;;;;;;;4.32;3.13;;;6.90;59.10;;;;;;4924858;28;20046;-65
2022/02/27 11:23:20;;;;;;;4.10;2.80;;;6.80;58.80;;;;;;4926284;28;20443;-65
2022/02/27 11:25:47;;;;;;;4.05;2.90;;;6.90;58.80;;;;;;4926588;28;20059;-65
2022/02/27 11:28:16;;;;;;;4.55;3.17;;;6.90;58.60;;;;;;4929859;28;20594;-65
2022/02/27 11:30:46;;;;;;;4.82;3.00;;;6.90;58.40;;;;;;4923040;28;20123;-65
2022/02/27 11:33:13;;;;;;;6.10;3.40;;;7.00;58.20;;;;;;4920793;28;20040;-66
2022/02/27 11:35:45;;;;;;;4.88;3.28;;;7.00;58.20;;;;;;4923280;28;20482;-65
2022/02/27 11:38:15;;;;;;;5.53;3.20;;;7.00;58.10;;;;;;4924529;28;20459;-66
2022/02/27 11:40:50;;;;;;;4.82;3.08;;;7.00;57.90;;;;;;4921323;28;20039;-65
2022/02/27 11:43:18;;;;;;;6.72;3.30;;;7.00;58.00;;;;;;4924366;28;20035;-65
2022/02/27 11:45:47;;;;;;;3.15;2.70;;;7.10;58.00;;;;;;4925815;28;20032;-65
2022/02/27 11:48:12;;;;;;;6.28;3.20;;;7.10;57.80;;;;;;4927722;28;20043;-63
2022/02/27 11:50:44;;;;;;;4.00;2.88;;;7.10;58.30;;;;;;4924083;28;20459;-66
2022/02/27 11:53:21;;;;;;;3.00;2.67;;;7.20;57.50;;;;;;4924259;29;20134;-65
2022/02/27 11:55:48;;;;;;;5.45;3.40;;;7.20;56.90;;;;;;4931048;28;20156;-66
2022/02/27 11:58:18;;;;;;;3.67;2.95;;;7.30;57.90;;;;;;4925716;28;20063;-65
2022/02/27 12:00:44;;;;;;;4.88;2.85;;;7.30;57.00;;;;;;4940374;28;20055;-65
2022/02/27 12:03:30;;;;;;;5.22;2.90;;;7.40;57.10;;;;;;4928407;28;20144;-66
2022/02/27 12:06:00;;;;;;;4.25;3.30;;;7.40;56.50;;;;;;4923919;28;20078;-65
2022/02/27 12:08:42;;;;;;;6.43;3.20;;;7.50;57.00;;;;;;4926695;28;20340;-67
2022/02/27 12:11:33;;;;;;;5.00;3.03;;;7.50;56.40;;;;;;4923518;28;20035;-66
2022/02/27 12:13:59;;;;;;;3.63;2.80;;;7.50;55.90;;;;;;4928153;28;20114;-66
2022/02/27 12:16:41;;;;;;;3.72;2.85;;;7.60;56.80;;;;;;4928363;28;20028;-65
2022/02/27 12:19:23;;;;;;;3.85;2.83;;;7.60;55.60;;;;;;4926297;28;20560;-66
2022/02/27 12:21:50;;;;;;;3.55;2.80;;;7.70;55.80;;;;;;4925709;28;20058;-65
2022/02/27 12:24:23;;;;;;;4.13;2.75;;;7.70;56.40;;;;;;4928540;28;20555;-66
2022/02/27 12:27:03;;;;;;;3.30;2.97;;;7.80;55.70;;;;;;4907953;28;20036;-66
2022/02/27 12:29:47;;;;;;;3.92;2.67;;;7.80;55.80;;;;;;4910270;28;20064;-65
2022/02/27 12:32:18;;;;;;;4.35;2.88;;;7.90;55.70;;;;;;4913266;28;20039;-66
2022/02/27 12:34:47;;;;;;;3.85;2.97;;;7.90;55.90;;;;;;4911978;28;20067;-65
2022/02/27 12:37:15;;;;;;;4.90;3.20;;;7.90;55.60;;;;;;4913866;28;20056;-66
2022/02/27 12:39:42;;;;;;;4.60;2.90;;;7.90;55.30;;;;;;4912648;28;20063;-65
2022/02/27 12:42:10;;;;;;;4.60;2.83;;;7.90;55.20;;;;;;4913289;29;20056;-66
2022/02/27 12:44:40;;;;;;;4.63;3.15;;;7.90;55.00;;;;;;4906062;28;20092;-65
2022/02/27 12:47:10;;;;;;;3.38;3.00;;;7.90;55.00;;;;;;4913174;28;20046;-65
2022/02/27 12:50:18;;;;;;;3.33;2.80;;;7.90;54.90;;;;;;4911794;29;20535;-66
2022/02/27 12:52:46;;;;;;;4.22;3.00;;;7.90;54.50;;;;;;4911330;28;20050;-66